Airport ID:K65S
Update Time (UTC):27 SEP 20 07:30
Wind Speed (Knots):CALM
Wind Direction (Magnetic):
Temperature (°C):3
Dew Point (°C):3
Humidity (%):95
Altimeter (inHg):30.18
Density Altitude (Feet):
Visibility (Miles):10
Clouds (Hundreds of feet):CLR
Present Weather:NO PRECIPITATION
METAR:METAR K65S 270730Z AUTO 00000KT 10SM CLR 03/03 A3018 RMK AO2

The data displayed is for advisory purposes only and is not to be used for flight planning or operations.